NCAR-RAP Real-Time Weather Data

Output produced by METARs form (12 August 2020  18:26 UTC)
found at http://weather.rap.ucar.edu/surface/
 
KBOI 121753Z 33008KT 10SM CLR 27/00 A2997 RMK AO2 SLP114 T02670000 10272 20172 53007
KBOI 121653Z 32007KT 10SM CLR 26/01 A2996 RMK AO2 SLP112 T02560006
KBOI 121553Z 32009KT 10SM CLR 24/01 A2995 RMK AO2 SLP109 T02440006
KBOI 121453Z 00000KT 10SM CLR 22/02 A2995 RMK AO2 SLP109 T02170017 51022
KBOI 121353Z 00000KT 10SM CLR 19/01 A2993 RMK AO2 SLP102 T01940011
KBOI 121253Z 20003KT 10SM CLR 18/02 A2990 RMK AO2 SLP091 T01830017
KBOI 121153Z 00000KT 10SM CLR 20/02 A2987 RMK AO2 SLP081 T02000017 10289 20200 53015
KBOI 121053Z 27008KT 10SM CLR 22/03 A2985 RMK AO2 SLP072 T02220033
KBOI 120953Z 00000KT 10SM CLR 24/04 A2983 RMK AO2 SLP065 T02390039
KBOI 120853Z 12005KT 10SM CLR 26/03 A2983 RMK AO2 SLP061 T02560033 50003
KBOI 120753Z 17004KT 10SM CLR 28/03 A2983 RMK AO2 SLP062 T02780028
KBOI 120653Z 13007KT 10SM CLR 27/03 A2983 RMK AO2 SLP062 T02720028 403610167
KBOI 120553Z 10006KT 10SM CLR 28/03 A2982 RMK AO2 SLP060 T02830033 10361 20278 51012
KBOI 120453Z 17006KT 10SM CLR 28/03 A2981 RMK AO2 SLP059 T02830033
KBOI 120353Z 21012KT 10SM CLR 30/03 A2980 RMK AO2 SLP057 T03000028
KBOI 120253Z 22005KT 10SM CLR 31/06 A2978 RMK AO2 SLP051 T03060056 55001
KBOI 120153Z 19012KT 10SM CLR 33/02 A2977 RMK AO2 SLP048 T03280022
KBOI 120053Z 02005KT 10SM CLR 34/02 A2977 RMK AO2 SLP049 T03440017
KBOI 112353Z 03005KT 10SM CLR 36/02 A2978 RMK AO2 SLP052 T03560017 10361 20306 56025
KBOI 112253Z VRB04KT 10SM CLR 35/01 A2981 RMK AO2 SLP059 T03500011
KBOI 112153Z 36007KT 10SM CLR 36/03 A2983 RMK AO2 SLP067 T03560028
KBOI 112053Z 03005KT 10SM CLR 35/03 A2986 RMK AO2 SLP078 T03500033 58018
KBOI 111953Z 26005KT 10SM CLR 33/04 A2989 RMK AO2 SLP089 T03330039
KBOI 111853Z VRB03KT 10SM CLR 32/04 A2991 RMK AO2 SLP094 T03220044
KBOI 111753Z 05003KT 10SM CLR 31/04 A2992 RMK AO2 SLP101 T03060039 10306 20167 58004
KBOI 111653Z 14006KT 10SM CLR 28/04 A2993 RMK AO2 SLP105 T02830039
KBOI 111553Z 11005KT 10SM CLR 26/04 A2994 RMK AO2 SLP107 T02560044
KBOI 111453Z 13006KT 10SM CLR 22/06 A2993 RMK AO2 SLP106 T02220056 51009
KBOI 111353Z 13006KT 10SM CLR 19/05 A2993 RMK AO2 SLP106 T01890050
KBOI 111253Z 12006KT 10SM CLR 17/05 A2992 RMK AO2 SLP102 T01670050
KBOI 111153Z 12005KT 10SM CLR 17/05 A2990 RMK AO2 SLP097 T01720050 10217 20172 53002
KBOI 111053Z 14006KT 10SM CLR 18/04 A2989 RMK AO2 SLP092 T01780044
KBOI 110953Z 12006KT 10SM CLR 18/05 A2989 RMK AO2 SLP093 T01830050
KBOI 110853Z 13006KT 10SM CLR 19/05 A2990 RMK AO2 SLP095 T01890050 58002
KBOI 110753Z 13004KT 10SM CLR 19/04 A2990 RMK AO2 SLP098 T01890044
KBOI 110653Z 12005KT 10SM CLR 21/03 A2991 RMK AO2 SLP099 T02110033 403170150
KBOI 110553Z 13004KT 10SM CLR 21/02 A2990 RMK AO2 SLP100 T02060022 10317 20200 50002
KBOI 110453Z 00000KT 10SM CLR 22/03 A2991 RMK AO2 SLP101 T02220028
KBOI 110353Z 05004KT 10SM CLR 25/04 A2990 RMK AO2 SLP098 T02500044
KBOI 110253Z 27005KT 10SM CLR 28/02 A2990 RMK AO2 SLP098 T02780022 56012
KBOI 110153Z 26009KT 10SM CLR 30/02 A2990 RMK AO2 SLP098 T03000022
KBOI 110053Z 29007KT 250V320 10SM CLR 31/01 A2992 RMK AO2 SLP103 T03110011
KBOI 102353Z 28009KT 10SM CLR 32/01 A2994 RMK AO2 SLP109 T03170011 10317 20244 58026
KBOI 102253Z 31007KT 260V330 10SM CLR 31/01 A2997 RMK AO2 SLP121 T03060011
KBOI 102153Z 31008KT 10SM CLR 29/03 A2999 RMK AO2 SLP131 T02940033
KBOI 102053Z 30009G16KT 10SM CLR 29/02 A3002 RMK AO2 SLP138 T02940022 58020
KBOI 101953Z 31006KT 10SM CLR 28/03 A3004 RMK AO2 SLP146 T02830033
KBOI 101907Z 30010KT 10SM CLR 27/06 A3006 RMK AO2 T02720056
KBOI 101853Z AUTO 9SM CLR 27/06 A3006 RMK AO2 SLP153 T02670056